createdAt,value
2023-05-06T00:01:16.766Z,21.38
2023-05-06T00:03:43.344Z,19.70
2023-05-06T00:06:09.988Z,17.15
2023-05-06T00:08:36.372Z,17.55
2023-05-06T00:11:02.750Z,17.35
2023-05-06T00:13:29.154Z,19.42
2023-05-06T00:15:55.613Z,17.55
2023-05-06T00:18:23.590Z,19.77
2023-05-06T00:20:50.234Z,18.48
2023-05-06T00:23:16.756Z,20.80
2023-05-06T00:25:43.230Z,19.80
2023-05-06T00:28:09.649Z,18.98
2023-05-06T00:30:36.013Z,18.08
2023-05-06T00:33:02.920Z,21.58
2023-05-06T00:35:29.735Z,19.30
2023-05-06T00:37:57.989Z,19.55
2023-05-06T00:40:24.515Z,20.77
2023-05-06T00:42:50.953Z,18.70
2023-05-06T00:45:17.438Z,20.40
2023-05-06T00:47:44.721Z,17.90
2023-05-06T00:50:11.397Z,17.52
2023-05-06T00:52:37.880Z,19.65
2023-05-06T00:55:04.492Z,20.58
2023-05-06T00:57:31.152Z,19.00
2023-05-06T00:59:57.606Z,19.42
2023-05-06T01:02:30.623Z,25.52
2023-05-06T01:05:04.121Z,18.52
2023-05-06T01:08:08.084Z,19.20
2023-05-06T01:11:24.210Z,18.70
2023-05-06T01:13:57.105Z,18.92
2023-05-06T01:16:25.442Z,21.20
2023-05-06T01:18:52.349Z,23.77
2023-05-06T01:21:19.336Z,22.80
2023-05-06T01:23:52.023Z,22.45
2023-05-06T01:26:18.476Z,21.98
2023-05-06T01:28:44.883Z,20.30
2023-05-06T01:31:14.061Z,24.05
2023-05-06T01:33:48.947Z,26.33
2023-05-06T01:36:30.660Z,22.27
2023-05-06T01:39:06.296Z,22.60
2023-05-06T01:41:34.549Z,22.65
2023-05-06T01:44:01.638Z,22.70
2023-05-06T01:46:29.746Z,20.52
2023-05-06T01:48:58.197Z,24.38
2023-05-06T01:51:24.903Z,27.35
2023-05-06T01:53:51.400Z,24.60
2023-05-06T01:56:17.833Z,24.67
2023-05-06T01:58:44.221Z,23.25
2023-05-06T02:01:10.664Z,26.90
2023-05-06T02:03:37.557Z,24.65
2023-05-06T02:06:04.823Z,28.35
2023-05-06T02:08:31.288Z,27.48
2023-05-06T02:10:57.691Z,26.10
2023-05-06T02:13:24.111Z,27.95
2023-05-06T02:15:54.298Z,30.45
2023-05-06T02:18:20.887Z,29.67
2023-05-06T02:20:47.529Z,23.38
2023-05-06T02:23:13.994Z,25.67
2023-05-06T02:25:40.405Z,26.55
2023-05-06T02:28:06.820Z,26.27
2023-05-06T02:30:34.502Z,27.48
2023-05-06T02:33:00.942Z,26.25
2023-05-06T02:35:27.449Z,25.50
2023-05-06T02:37:53.891Z,24.10
2023-05-06T02:40:20.424Z,25.73
2023-05-06T02:42:46.957Z,25.90
2023-05-06T02:45:13.444Z,24.58
2023-05-06T02:47:40.527Z,28.38
2023-05-06T02:50:07.181Z,26.50
2023-05-06T02:52:34.511Z,26.08
2023-05-06T02:55:01.549Z,27.65
2023-05-06T02:57:28.022Z,32.78
2023-05-06T02:59:54.471Z,28.67
2023-05-06T03:02:20.949Z,31.13
2023-05-06T03:04:47.480Z,30.35
2023-05-06T03:07:13.910Z,27.27
2023-05-06T03:09:40.559Z,26.15
2023-05-06T03:12:07.012Z,29.88
2023-05-06T03:14:33.453Z,35.10
2023-05-06T03:16:59.920Z,34.17
2023-05-06T03:19:26.481Z,35.08
2023-05-06T03:21:52.928Z,35.75
2023-05-06T03:24:19.290Z,33.10
2023-05-06T03:26:45.719Z,30.70
2023-05-06T03:29:12.151Z,32.83
2023-05-06T03:31:38.610Z,31.48
2023-05-06T03:34:04.990Z,31.08
2023-05-06T03:36:31.704Z,31.88
2023-05-06T03:38:58.050Z,33.10
2023-05-06T03:41:24.561Z,31.27
2023-05-06T03:43:51.340Z,32.83
2023-05-06T03:46:17.742Z,33.95
2023-05-06T03:48:44.194Z,33.88
2023-05-06T03:51:10.637Z,39.35
2023-05-06T03:53:37.073Z,37.50
2023-05-06T03:56:03.536Z,38.13
2023-05-06T03:58:29.919Z,32.40
2023-05-06T04:00:56.360Z,40.80
2023-05-06T04:03:22.861Z,32.08
2023-05-06T04:05:50.594Z,31.95
2023-05-06T04:08:17.292Z,32.78
2023-05-06T04:10:43.800Z,32.70
2023-05-06T04:13:10.249Z,33.10
2023-05-06T04:15:37.580Z,34.45
2023-05-06T04:18:05.653Z,36.22
2023-05-06T04:20:32.112Z,31.17
2023-05-06T04:22:58.597Z,31.63
2023-05-06T04:25:25.048Z,33.10
2023-05-06T04:27:51.409Z,34.13
2023-05-06T04:30:17.890Z,44.75
2023-05-06T04:32:44.288Z,34.30
2023-05-06T04:35:11.050Z,35.03
2023-05-06T04:37:37.636Z,33.53
2023-05-06T04:40:04.554Z,32.10
2023-05-06T04:42:30.906Z,36.42
2023-05-06T04:44:59.054Z,32.47
2023-05-06T04:47:25.574Z,35.25
2023-05-06T04:49:51.975Z,33.17
2023-05-06T04:52:18.387Z,32.80
2023-05-06T04:54:45.710Z,30.23
2023-05-06T04:57:12.251Z,33.88
2023-05-06T04:59:38.641Z,37.15
2023-05-06T05:02:05.032Z,33.55
2023-05-06T05:04:31.415Z,35.58
2023-05-06T05:06:58.512Z,33.58
2023-05-06T05:09:24.941Z,31.95
2023-05-06T05:11:51.410Z,40.35
2023-05-06T05:14:17.785Z,41.90
2023-05-06T05:16:44.485Z,45.30
2023-05-06T05:19:11.564Z,47.45
2023-05-06T05:21:38.186Z,43.40
2023-05-06T05:24:04.747Z,46.08
2023-05-06T05:26:36.800Z,45.75
2023-05-06T05:29:05.846Z,43.70
2023-05-06T05:31:32.509Z,46.63
2023-05-06T05:33:58.986Z,44.80
2023-05-06T05:36:26.150Z,48.38
2023-05-06T05:38:52.576Z,51.42
2023-05-06T05:41:19.003Z,52.78
2023-05-06T05:43:45.579Z,50.60
2023-05-06T05:46:11.990Z,49.47
2023-05-06T05:48:39.772Z,56.72
2023-05-06T05:51:06.189Z,51.22
2023-05-06T05:53:32.625Z,48.83
2023-05-06T05:55:59.054Z,45.33
2023-05-06T05:58:25.540Z,44.25
2023-05-06T06:00:52.168Z,44.30
2023-05-06T06:03:18.972Z,49.95
2023-05-06T06:05:45.612Z,42.40
2023-05-06T06:08:12.599Z,42.92
2023-05-06T06:10:39.009Z,43.08
2023-05-06T06:13:06.119Z,42.97
2023-05-06T06:15:32.654Z,42.42
2023-05-06T06:17:59.211Z,43.05
2023-05-06T06:20:26.582Z,46.25
2023-05-06T06:22:52.954Z,48.78
2023-05-06T06:25:19.369Z,43.47
2023-05-06T06:27:45.835Z,41.00
2023-05-06T06:30:12.436Z,42.50
2023-05-06T06:32:48.044Z,45.55
2023-05-06T06:35:14.532Z,40.40
2023-05-06T06:37:41.328Z,42.40
2023-05-06T06:40:08.661Z,43.03
2023-05-06T06:42:35.026Z,44.50
2023-05-06T06:45:01.555Z,45.13
2023-05-06T06:47:28.011Z,40.22
2023-05-06T06:49:54.372Z,43.00
2023-05-06T06:52:20.891Z,42.33
2023-05-06T06:54:47.313Z,41.47
2023-05-06T06:57:13.756Z,40.90
2023-05-06T06:59:40.275Z,40.90
2023-05-06T07:02:06.735Z,39.22
2023-05-06T07:04:33.193Z,40.85
2023-05-06T07:06:59.662Z,44.00
2023-05-06T07:09:26.037Z,40.50
2023-05-06T07:11:52.467Z,36.55
2023-05-06T07:14:20.201Z,38.88
2023-05-06T07:16:48.137Z,41.78
2023-05-06T07:19:15.845Z,43.15
2023-05-06T07:21:42.276Z,41.83
2023-05-06T07:24:08.908Z,41.92
2023-05-06T07:26:36.188Z,43.55
2023-05-06T07:29:04.091Z,39.97
2023-05-06T07:31:32.776Z,41.58
2023-05-06T07:33:59.511Z,42.15
2023-05-06T07:36:27.090Z,45.97
2023-05-06T07:38:53.774Z,41.97
2023-05-06T07:41:20.951Z,44.38
2023-05-06T07:43:47.358Z,45.72
2023-05-06T07:46:13.973Z,42.60
2023-05-06T07:48:40.513Z,42.55
2023-05-06T07:51:07.189Z,39.03
2023-05-06T07:53:33.738Z,38.38
2023-05-06T07:56:02.182Z,39.38
2023-05-06T07:58:30.172Z,39.50
2023-05-06T08:00:56.539Z,39.85
2023-05-06T08:03:23.206Z,33.92
2023-05-06T08:05:51.057Z,37.50
2023-05-06T08:08:22.663Z,40.10
2023-05-06T08:10:49.060Z,33.47
2023-05-06T08:13:15.559Z,36.40
2023-05-06T08:15:41.949Z,32.67
2023-05-06T08:18:20.998Z,32.65
2023-05-06T08:20:48.536Z,35.10
2023-05-06T08:23:14.973Z,38.63
2023-05-06T08:25:41.369Z,34.25
2023-05-06T08:28:07.796Z,34.15
2023-05-06T08:30:34.315Z,32.20
2023-05-06T08:33:01.987Z,36.55
2023-05-06T08:35:28.441Z,31.73
2023-05-06T08:37:54.796Z,35.97
2023-05-06T08:40:23.329Z,31.65
2023-05-06T08:42:50.241Z,30.98
2023-05-06T08:45:17.031Z,35.63
2023-05-06T08:47:43.709Z,38.60
2023-05-06T08:50:10.831Z,36.63
2023-05-06T08:52:38.301Z,30.30
2023-05-06T08:55:05.243Z,28.48
2023-05-06T08:57:33.675Z,32.00
2023-05-06T09:00:00.841Z,30.17
2023-05-06T09:02:27.846Z,29.02
2023-05-06T09:04:55.574Z,33.75
2023-05-06T09:07:22.414Z,35.05
2023-05-06T09:09:49.028Z,28.30
2023-05-06T09:12:15.548Z,34.08
2023-05-06T09:14:42.686Z,32.35
2023-05-06T09:17:24.225Z,34.53
2023-05-06T09:19:54.730Z,34.60
2023-05-06T09:22:22.091Z,34.65
2023-05-06T09:24:58.052Z,33.67
2023-05-06T09:27:26.099Z,35.05
2023-05-06T09:30:06.214Z,31.08
2023-05-06T09:32:33.029Z,37.22
2023-05-06T09:34:59.876Z,33.88
2023-05-06T09:37:26.458Z,33.83
2023-05-06T09:39:57.924Z,28.52
2023-05-06T09:44:53.867Z,26.88
2023-05-06T09:47:22.542Z,30.67
2023-05-06T09:49:48.924Z,30.33
2023-05-06T09:52:15.891Z,33.63
2023-05-06T09:54:42.648Z,29.83
2023-05-06T09:57:09.946Z,32.20
2023-05-06T09:59:36.689Z,30.20
2023-05-06T10:02:04.803Z,30.10
2023-05-06T10:04:33.461Z,31.13
2023-05-06T10:07:00.865Z,32.05
2023-05-06T10:09:27.561Z,25.42
2023-05-06T10:11:54.338Z,28.17
2023-05-06T10:14:20.918Z,26.10
2023-05-06T10:16:48.871Z,21.20
2023-05-06T10:19:19.001Z,23.75
2023-05-06T10:21:49.686Z,23.63
2023-05-06T10:24:19.228Z,21.90
2023-05-06T10:26:46.785Z,22.88
2023-05-06T10:29:13.459Z,19.33
2023-05-06T10:31:45.550Z,20.98
2023-05-06T10:34:12.179Z,16.77
2023-05-06T10:36:39.434Z,15.82
2023-05-06T10:39:09.709Z,17.85
2023-05-06T10:41:37.053Z,19.35
2023-05-06T10:44:03.482Z,18.25
2023-05-06T10:46:30.630Z,16.30
2023-05-06T10:49:10.902Z,14.50
2023-05-06T10:51:38.056Z,21.35
2023-05-06T10:54:10.417Z,17.20
2023-05-06T10:57:02.770Z,14.60
2023-05-06T10:59:29.944Z,11.27
2023-05-06T11:02:08.036Z,12.13
2023-05-06T11:07:12.356Z,12.35
2023-05-06T11:10:08.536Z,12.57
2023-05-06T11:12:49.829Z,12.45
2023-05-06T11:15:40.282Z,14.43
2023-05-06T11:18:25.128Z,19.90
2023-05-06T11:20:52.428Z,26.95
2023-05-06T11:23:19.219Z,28.75
2023-05-06T11:25:47.133Z,23.80
2023-05-06T11:28:15.128Z,27.20
2023-05-06T11:30:43.098Z,31.40
2023-05-06T11:33:17.800Z,31.02
2023-05-06T11:35:44.712Z,27.38
2023-05-06T11:38:11.197Z,32.00
2023-05-06T11:40:37.708Z,35.65
2023-05-06T11:43:13.978Z,28.35
2023-05-06T11:45:50.557Z,30.80
2023-05-06T11:48:18.090Z,28.00
2023-05-06T11:50:48.494Z,30.58
2023-05-06T11:53:19.264Z,40.17
2023-05-06T11:55:46.390Z,31.70
2023-05-06T11:58:16.927Z,30.38
2023-05-06T12:00:52.138Z,30.60
2023-05-06T12:03:22.433Z,29.75
2023-05-06T12:05:49.874Z,30.45
2023-05-06T12:08:26.573Z,30.92
2023-05-06T12:10:55.899Z,26.27
2023-05-06T12:13:22.476Z,24.65
2023-05-06T12:15:52.380Z,22.40
2023-05-06T12:18:18.869Z,24.77
2023-05-06T12:20:45.481Z,23.75
2023-05-06T12:23:13.030Z,27.58
2023-05-06T12:25:40.911Z,25.23
2023-05-06T12:28:17.252Z,25.38
2023-05-06T12:30:44.151Z,20.13
2023-05-06T12:33:11.202Z,20.52
2023-05-06T12:35:38.448Z,20.65
2023-05-06T12:38:15.351Z,19.23
2023-05-06T12:40:43.388Z,15.23
2023-05-06T12:43:10.826Z,20.30
2023-05-06T12:45:38.860Z,20.95
2023-05-06T12:48:06.808Z,20.63
2023-05-06T12:50:39.237Z,17.52
2023-05-06T12:53:06.831Z,20.33
2023-05-06T12:55:34.148Z,19.63
2023-05-06T12:58:00.640Z,17.65
2023-05-06T13:00:27.014Z,15.73
2023-05-06T13:02:53.628Z,19.42
2023-05-06T13:05:20.059Z,18.83
2023-05-06T13:07:46.419Z,15.15
2023-05-06T13:10:13.076Z,17.08
2023-05-06T13:12:39.712Z,16.83
2023-05-06T13:15:06.633Z,20.35
2023-05-06T13:17:33.125Z,17.05
2023-05-06T13:19:59.619Z,16.15
2023-05-06T13:22:26.330Z,20.02
2023-05-06T13:24:53.540Z,18.92
2023-05-06T13:27:19.926Z,15.43
2023-05-06T13:29:46.439Z,13.93
2023-05-06T13:32:12.992Z,18.70
2023-05-06T13:34:39.434Z,17.33
2023-05-06T13:37:06.100Z,17.45
2023-05-06T13:39:32.541Z,18.45
2023-05-06T13:41:58.971Z,19.27
2023-05-06T13:44:25.523Z,13.38
2023-05-06T13:46:52.456Z,15.57
2023-05-06T13:49:18.918Z,16.55
2023-05-06T13:51:45.559Z,15.05
2023-05-06T13:54:11.985Z,16.85
2023-05-06T13:56:38.480Z,17.63
2023-05-06T13:59:04.938Z,15.85
2023-05-06T14:01:31.385Z,17.85
2023-05-06T14:03:57.852Z,13.02
2023-05-06T14:06:24.314Z,16.13
2023-05-06T14:08:50.744Z,16.73
2023-05-06T14:11:17.208Z,12.52
2023-05-06T14:13:43.654Z,12.20
2023-05-06T14:16:10.134Z,15.50
2023-05-06T14:18:36.626Z,15.63
2023-05-06T14:21:03.644Z,17.02
2023-05-06T14:23:30.133Z,13.93
2023-05-06T14:25:56.560Z,13.95
2023-05-06T14:28:23.639Z,14.23
2023-05-06T14:30:50.875Z,12.18
2023-05-06T14:33:17.351Z,22.70
2023-05-06T14:35:43.876Z,22.92
2023-05-06T14:38:10.758Z,26.63
2023-05-06T14:40:38.659Z,25.42
2023-05-06T14:43:06.989Z,29.08
2023-05-06T14:45:33.395Z,23.63
2023-05-06T14:47:59.877Z,22.80
2023-05-06T14:50:26.343Z,25.60
2023-05-06T14:52:52.801Z,23.58
2023-05-06T14:55:20.157Z,24.88
2023-05-06T14:57:47.065Z,21.75
2023-05-06T15:00:14.827Z,22.52
2023-05-06T15:02:42.101Z,20.23
2023-05-06T15:05:09.813Z,22.05
2023-05-06T15:07:36.562Z,19.73
2023-05-06T15:10:03.382Z,20.17
2023-05-06T15:12:30.195Z,19.10
2023-05-06T15:14:56.873Z,22.63
2023-05-06T15:17:23.486Z,20.55
2023-05-06T15:19:49.967Z,20.60
2023-05-06T15:22:16.447Z,20.60
2023-05-06T15:24:43.033Z,23.20
2023-05-06T15:27:09.486Z,18.52
2023-05-06T15:29:38.019Z,19.75
2023-05-06T15:32:04.578Z,20.40
2023-05-06T15:34:31.104Z,19.67
2023-05-06T15:37:00.772Z,18.52
2023-05-06T15:39:27.374Z,21.85
2023-05-06T15:41:53.931Z,20.83
2023-05-06T15:44:20.952Z,21.42
2023-05-06T15:46:47.633Z,23.88
2023-05-06T15:49:45.400Z,20.40
2023-05-06T15:52:01.460Z,19.38
2023-05-06T15:54:28.687Z,20.67
2023-05-06T15:56:56.228Z,19.77
2023-05-06T15:59:22.976Z,22.20
2023-05-06T16:04:18.969Z,20.35
2023-05-06T16:06:45.500Z,19.08
2023-05-06T16:09:12.029Z,17.45
2023-05-06T16:11:38.459Z,18.83
2023-05-06T16:14:04.901Z,23.40
2023-05-06T16:16:31.356Z,21.48
2023-05-06T16:18:57.764Z,20.02
2023-05-06T16:21:24.138Z,18.30
2023-05-06T16:23:50.864Z,18.83
2023-05-06T16:26:17.685Z,17.40
2023-05-06T16:28:44.094Z,17.33
2023-05-06T16:31:10.713Z,17.77
2023-05-06T16:33:37.197Z,16.35
2023-05-06T16:36:03.841Z,18.85
2023-05-06T16:38:30.341Z,18.13
2023-05-06T16:40:56.777Z,18.10
2023-05-06T16:43:23.232Z,15.88
2023-05-06T16:45:49.755Z,20.05
2023-05-06T16:48:16.494Z,18.95
2023-05-06T16:50:42.990Z,15.20
2023-05-06T16:53:09.506Z,15.07
2023-05-06T16:55:36.111Z,15.45
2023-05-06T16:58:02.600Z,14.77
2023-05-06T17:00:29.151Z,11.98
2023-05-06T17:02:55.821Z,14.00
2023-05-06T17:05:22.508Z,13.20
2023-05-06T17:07:50.168Z,16.42
2023-05-06T17:10:17.082Z,12.40
2023-05-06T17:12:43.540Z,16.75
2023-05-06T17:15:10.301Z,15.68
2023-05-06T17:17:36.710Z,14.07
2023-05-06T17:20:05.091Z,14.93
2023-05-06T17:22:31.524Z,15.05
2023-05-06T17:24:57.976Z,13.88
2023-05-06T17:27:24.438Z,11.70
2023-05-06T17:29:51.546Z,10.32
2023-05-06T17:32:18.219Z,12.75
2023-05-06T17:34:45.644Z,16.02
2023-05-06T17:37:12.042Z,14.55
2023-05-06T17:39:38.408Z,14.82
2023-05-06T17:42:04.880Z,18.30
2023-05-06T17:44:31.521Z,16.85
2023-05-06T17:46:58.186Z,17.13
2023-05-06T17:49:24.739Z,16.90
2023-05-06T17:51:51.248Z,18.00
2023-05-06T17:54:17.958Z,17.52
2023-05-06T17:56:50.227Z,16.30
2023-05-06T17:59:18.425Z,18.60
2023-05-06T18:01:44.977Z,17.25
2023-05-06T18:04:12.388Z,13.55
2023-05-06T18:06:41.324Z,14.48
2023-05-06T18:09:08.411Z,14.25
2023-05-06T18:11:35.139Z,15.43
2023-05-06T18:14:01.658Z,19.17
2023-05-06T18:16:28.101Z,16.77
2023-05-06T18:18:54.566Z,14.30
2023-05-06T18:21:21.140Z,15.63
2023-05-06T18:23:48.531Z,16.30
2023-05-06T18:26:28.000Z,14.85
2023-05-06T18:29:06.760Z,16.30
2023-05-06T18:31:33.527Z,18.80
2023-05-06T18:34:00.022Z,16.08
2023-05-06T18:36:26.860Z,16.02
2023-05-06T18:38:53.298Z,17.23
2023-05-06T18:41:19.680Z,18.38
2023-05-06T18:43:46.121Z,14.52
2023-05-06T18:46:12.544Z,19.10
2023-05-06T18:48:39.061Z,22.00
2023-05-06T18:51:16.158Z,19.00
2023-05-06T18:53:43.108Z,17.23
2023-05-06T18:56:10.548Z,14.98
2023-05-06T18:58:38.272Z,19.25
2023-05-06T19:01:05.956Z,18.90
2023-05-06T19:03:34.382Z,20.20
2023-05-06T19:06:02.699Z,21.40
2023-05-06T19:08:29.761Z,20.02
2023-05-06T19:10:56.452Z,17.35
2023-05-06T19:13:23.059Z,15.52
2023-05-06T19:15:49.580Z,18.75
2023-05-06T19:18:16.028Z,18.50
2023-05-06T19:20:42.435Z,21.33
2023-05-06T19:23:09.310Z,16.92
2023-05-06T19:25:37.404Z,14.50
2023-05-06T19:28:04.920Z,20.25
2023-05-06T19:30:33.358Z,15.18
2023-05-06T19:33:00.672Z,17.00
2023-05-06T19:35:27.182Z,13.43
2023-05-06T19:37:53.684Z,13.10
2023-05-06T19:40:20.339Z,15.18
2023-05-06T19:42:46.747Z,17.23
2023-05-06T19:45:14.577Z,15.40
2023-05-06T19:47:41.859Z,15.98
2023-05-06T19:50:09.063Z,13.88
2023-05-06T19:52:35.741Z,20.27
2023-05-06T19:55:03.058Z,14.65
2023-05-06T19:57:29.888Z,15.77
2023-05-06T19:59:56.787Z,17.67
2023-05-06T20:02:23.389Z,20.90
2023-05-06T20:04:49.961Z,18.10
2023-05-06T20:07:17.273Z,16.88
2023-05-06T20:09:44.447Z,16.50
2023-05-06T20:12:10.890Z,15.48
2023-05-06T20:14:37.280Z,14.23
2023-05-06T20:17:03.668Z,18.13
2023-05-06T20:19:31.105Z,19.50
2023-05-06T20:21:57.838Z,23.05
2023-05-06T20:24:24.543Z,17.08
2023-05-06T20:26:50.987Z,18.42
2023-05-06T20:29:17.605Z,16.58
2023-05-06T20:31:47.380Z,19.98
2023-05-06T20:34:14.565Z,24.17
2023-05-06T20:36:42.391Z,19.10
2023-05-06T20:39:10.212Z,23.23
2023-05-06T20:41:36.588Z,23.33
2023-05-06T20:44:03.637Z,21.67
2023-05-06T20:46:30.268Z,25.27
2023-05-06T20:48:57.400Z,24.10
2023-05-06T20:51:23.833Z,28.08
2023-05-06T20:53:51.994Z,28.15
2023-05-06T20:56:20.792Z,23.13
2023-05-06T20:58:47.902Z,27.70
2023-05-06T21:01:17.529Z,29.00
2023-05-06T21:03:46.194Z,30.40
2023-05-06T21:06:13.751Z,28.83
2023-05-06T21:08:40.247Z,35.72
2023-05-06T21:11:06.642Z,31.15
2023-05-06T21:13:33.048Z,32.63
2023-05-06T21:15:59.495Z,29.35
2023-05-06T21:18:26.133Z,32.33
2023-05-06T21:20:52.891Z,30.88
2023-05-06T21:23:19.283Z,31.25
2023-05-06T21:25:46.145Z,32.13
2023-05-06T21:28:13.626Z,31.08
2023-05-06T21:30:40.200Z,30.00
2023-05-06T21:33:08.307Z,33.22
2023-05-06T21:35:34.821Z,34.05
2023-05-06T21:38:01.266Z,30.40
2023-05-06T21:40:27.653Z,35.15
2023-05-06T21:42:54.116Z,32.53
2023-05-06T21:45:21.189Z,31.30
2023-05-06T21:47:48.641Z,28.83
2023-05-06T21:50:15.558Z,32.47
2023-05-06T21:52:41.964Z,30.17
2023-05-06T21:55:08.718Z,31.58
2023-05-06T21:57:35.252Z,33.42
2023-05-06T22:00:01.996Z,26.92
2023-05-06T22:02:28.689Z,29.27
2023-05-06T22:04:55.137Z,29.30
2023-05-06T22:07:21.495Z,30.33
2023-05-06T22:09:47.863Z,28.02
2023-05-06T22:12:15.356Z,28.83
2023-05-06T22:14:42.011Z,27.77
2023-05-06T22:17:10.155Z,33.17
2023-05-06T22:19:36.688Z,30.40
2023-05-06T22:22:03.380Z,30.05
2023-05-06T22:24:29.862Z,31.10
2023-05-06T22:26:56.435Z,29.88
2023-05-06T22:29:22.870Z,30.27
2023-05-06T22:31:49.253Z,32.53
2023-05-06T22:34:15.765Z,32.53
2023-05-06T22:36:42.205Z,29.48
2023-05-06T22:39:09.102Z,30.67
2023-05-06T22:41:35.550Z,31.48
2023-05-06T22:44:01.981Z,34.95
2023-05-06T22:46:29.118Z,33.60
2023-05-06T22:48:55.683Z,36.08
2023-05-06T22:51:22.048Z,35.40
2023-05-06T22:53:48.479Z,34.63
2023-05-06T22:56:14.858Z,37.75
2023-05-06T22:58:41.267Z,39.17
2023-05-06T23:01:07.919Z,34.53
2023-05-06T23:03:35.170Z,41.78
2023-05-06T23:06:01.588Z,35.78
2023-05-06T23:08:28.015Z,37.80
2023-05-06T23:10:54.437Z,37.72
2023-05-06T23:13:21.006Z,48.45
2023-05-06T23:15:47.413Z,45.80
2023-05-06T23:18:14.162Z,47.28
2023-05-06T23:20:40.650Z,43.22
2023-05-06T23:23:10.436Z,39.10
2023-05-06T23:25:36.922Z,45.67
2023-05-06T23:28:03.541Z,44.90
2023-05-06T23:30:29.928Z,46.60
2023-05-06T23:32:56.379Z,45.03
2023-05-06T23:35:22.761Z,43.28
2023-05-06T23:37:49.109Z,38.45
2023-05-06T23:40:16.731Z,39.95
2023-05-06T23:42:43.116Z,38.03
2023-05-06T23:45:09.810Z,36.40
2023-05-06T23:47:36.426Z,36.28
2023-05-06T23:50:02.871Z,39.10
2023-05-06T23:52:29.247Z,34.17
2023-05-06T23:54:55.673Z,37.70
2023-05-06T23:57:22.198Z,35.10
2023-05-06T23:59:48.565Z,35.17
